createdAt,value
2018-12-10T00:01:38.061Z,89.40
2018-12-10T00:04:08.412Z,89.90
2018-12-10T00:06:38.728Z,90.50
2018-12-10T00:09:06.886Z,90.50
2018-12-10T00:11:37.099Z,81.50
2018-12-10T00:14:05.406Z,83.60
2018-12-10T00:16:33.867Z,85.60
2018-12-10T00:19:02.143Z,86.90
2018-12-10T00:21:30.211Z,87.70
2018-12-10T00:23:58.392Z,87.10
2018-12-10T00:26:26.652Z,88.10
2018-12-10T00:28:55.106Z,88.10
2018-12-10T00:31:23.317Z,89.60
2018-12-10T00:33:51.969Z,89.70
2018-12-10T00:36:20.103Z,90.10
2018-12-10T00:38:48.335Z,90.50
2018-12-10T00:41:16.736Z,90.90
2018-12-10T00:43:45.050Z,90.80
2018-12-10T00:46:13.307Z,91.00
2018-12-10T00:48:41.550Z,90.60
2018-12-10T00:51:09.852Z,90.60
2018-12-10T00:53:38.111Z,90.30
2018-12-10T00:56:06.278Z,90.30
2018-12-10T00:58:35.256Z,90.30
2018-12-10T01:01:04.121Z,90.90
2018-12-10T01:03:32.251Z,91.10
2018-12-10T01:06:00.607Z,91.40
2018-12-10T01:08:28.692Z,91.50
2018-12-10T01:10:56.786Z,91.70
2018-12-10T01:13:24.964Z,91.60
2018-12-10T01:15:54.127Z,91.80
2018-12-10T01:18:22.298Z,92.10
2018-12-10T01:20:50.597Z,92.20
2018-12-10T01:23:18.864Z,92.40
2018-12-10T01:25:47.287Z,92.30
2018-12-10T01:28:15.622Z,92.50
2018-12-10T01:30:44.024Z,92.30
2018-12-10T01:33:12.283Z,92.50
2018-12-10T01:35:40.460Z,92.50
2018-12-10T01:38:08.841Z,92.10
2018-12-10T01:40:37.116Z,91.90
2018-12-10T01:43:05.184Z,92.10
2018-12-10T01:45:33.567Z,92.10
2018-12-10T01:48:01.851Z,92.30
2018-12-10T01:50:30.860Z,92.40
2018-12-10T01:52:59.528Z,92.40
2018-12-10T01:55:27.890Z,92.40
2018-12-10T01:57:56.088Z,92.50
2018-12-10T02:00:24.409Z,92.40
2018-12-10T02:02:52.730Z,92.50
2018-12-10T02:05:20.933Z,92.70
2018-12-10T02:07:49.300Z,92.70
2018-12-10T02:10:17.484Z,92.50
2018-12-10T02:12:46.756Z,92.50
2018-12-10T02:15:15.973Z,92.30
2018-12-10T02:17:44.236Z,92.30
2018-12-10T02:20:12.745Z,92.50
2018-12-10T02:22:41.018Z,92.10
2018-12-10T02:25:09.285Z,92.10
2018-12-10T02:27:37.525Z,91.80
2018-12-10T02:30:05.927Z,91.80
2018-12-10T02:32:34.799Z,91.20
2018-12-10T02:35:03.556Z,90.60
2018-12-10T02:37:31.676Z,90.50
2018-12-10T02:39:59.950Z,90.70
2018-12-10T02:42:28.257Z,90.60
2018-12-10T02:44:56.615Z,90.40
2018-12-10T02:47:30.363Z,90.50
2018-12-10T02:50:00.743Z,90.80
2018-12-10T02:52:29.035Z,91.10
2018-12-10T02:54:57.279Z,91.30
2018-12-10T02:57:25.768Z,91.10
2018-12-10T02:59:54.120Z,91.10
2018-12-10T03:02:22.437Z,91.20
2018-12-10T03:04:50.823Z,90.50
2018-12-10T03:07:19.185Z,91.00
2018-12-10T03:09:47.586Z,90.30
2018-12-10T03:12:15.836Z,90.50
2018-12-10T03:14:44.177Z,91.00
2018-12-10T03:17:13.509Z,91.30
2018-12-10T03:19:41.878Z,91.60
2018-12-10T03:22:10.297Z,91.10
2018-12-10T03:24:38.684Z,90.60
2018-12-10T03:27:06.957Z,89.70
2018-12-10T03:29:35.214Z,90.40
2018-12-10T03:32:03.511Z,90.80
2018-12-10T03:34:31.684Z,90.80
2018-12-10T03:37:00.075Z,90.40
2018-12-10T03:39:28.332Z,89.20
2018-12-10T03:41:56.599Z,89.90
2018-12-10T03:44:24.771Z,89.60
2018-12-10T03:46:53.572Z,89.70
2018-12-10T03:49:21.952Z,89.40
2018-12-10T03:51:50.303Z,89.20
2018-12-10T03:54:18.615Z,88.80
2018-12-10T03:56:47.013Z,88.60
2018-12-10T03:59:15.945Z,89.60
2018-12-10T04:01:44.340Z,89.40
2018-12-10T04:04:12.732Z,88.60
2018-12-10T04:06:41.105Z,89.00
2018-12-10T04:09:09.677Z,89.40
2018-12-10T04:11:38.240Z,89.90
2018-12-10T04:14:06.348Z,89.60
2018-12-10T04:16:34.606Z,89.70
2018-12-10T04:19:03.089Z,89.00
2018-12-10T04:21:31.627Z,88.60
2018-12-10T04:24:00.881Z,89.20
2018-12-10T04:26:29.284Z,89.60
2018-12-10T04:28:57.522Z,90.10
2018-12-10T04:31:25.617Z,90.10
2018-12-10T04:33:54.228Z,90.40
2018-12-10T04:36:22.364Z,90.20
2018-12-10T04:38:50.572Z,90.30
2018-12-10T04:41:18.818Z,90.50
2018-12-10T04:43:47.120Z,89.60
2018-12-10T04:46:15.581Z,90.10
2018-12-10T04:48:43.817Z,90.30
2018-12-10T04:51:11.969Z,90.30
2018-12-10T04:53:51.580Z,90.50
2018-12-10T04:56:24.537Z,90.40
2018-12-10T04:58:52.733Z,89.70
2018-12-10T05:01:21.373Z,90.10
2018-12-10T05:03:49.642Z,89.40
2018-12-10T05:06:17.989Z,89.60
2018-12-10T05:08:46.228Z,89.90
2018-12-10T05:11:15.604Z,90.10
2018-12-10T05:13:43.737Z,89.90
2018-12-10T05:16:12.029Z,90.10
2018-12-10T05:18:40.838Z,89.20
2018-12-10T05:21:09.478Z,89.00
2018-12-10T05:23:37.765Z,88.40
2018-12-10T05:26:05.997Z,88.40
2018-12-10T05:28:34.214Z,88.40
2018-12-10T05:31:02.510Z,88.40
2018-12-10T05:33:31.217Z,87.90
2018-12-10T05:35:59.651Z,88.20
2018-12-10T05:38:28.045Z,88.20
2018-12-10T05:40:56.382Z,88.10
2018-12-10T05:43:24.759Z,87.50
2018-12-10T05:45:53.115Z,88.10
2018-12-10T05:48:21.429Z,87.70
2018-12-10T05:50:49.818Z,87.50
2018-12-10T05:53:18.132Z,86.80
2018-12-10T05:55:46.296Z,86.90
2018-12-10T05:58:14.560Z,86.00
2018-12-10T06:00:42.971Z,86.00
2018-12-10T06:03:12.175Z,83.80
2018-12-10T06:05:40.309Z,84.10
2018-12-10T06:08:08.613Z,83.40
2018-12-10T06:10:36.860Z,84.10
2018-12-10T06:13:05.039Z,84.00
2018-12-10T06:15:33.430Z,83.80
2018-12-10T06:18:01.679Z,83.20
2018-12-10T06:20:29.878Z,83.20
2018-12-10T06:22:58.258Z,83.20
2018-12-10T06:25:26.552Z,83.20
2018-12-10T06:27:55.135Z,82.80
2018-12-10T06:30:23.387Z,82.80
2018-12-10T06:32:51.771Z,82.50
2018-12-10T06:35:20.237Z,82.50
2018-12-10T06:37:48.498Z,81.90
2018-12-10T06:40:16.800Z,81.50
2018-12-10T06:42:44.979Z,81.00
2018-12-10T06:45:13.376Z,81.20
2018-12-10T06:47:41.638Z,81.50
2018-12-10T06:50:10.255Z,81.50
2018-12-10T06:52:38.698Z,81.70
2018-12-10T06:55:07.378Z,81.90
2018-12-10T06:57:35.765Z,81.70
2018-12-10T07:00:04.647Z,81.90
2018-12-10T07:02:33.105Z,82.10
2018-12-10T07:05:01.680Z,82.50
2018-12-10T07:07:30.110Z,82.70
2018-12-10T07:09:58.412Z,83.20
2018-12-10T07:12:26.742Z,83.60
2018-12-10T07:14:55.036Z,83.20
2018-12-10T07:17:23.518Z,83.80
2018-12-10T07:19:52.072Z,83.60
2018-12-10T07:25:20.507Z,85.30
2018-12-10T07:27:49.904Z,85.10
2018-12-10T07:30:18.283Z,85.30
2018-12-10T07:32:46.670Z,86.00
2018-12-10T07:35:15.110Z,86.40
2018-12-10T07:37:43.348Z,87.50
2018-12-10T07:40:11.806Z,87.70
2018-12-10T07:42:39.989Z,87.90
2018-12-10T07:45:08.482Z,88.60
2018-12-10T07:47:36.724Z,88.10
2018-12-10T07:50:05.616Z,88.40
2018-12-10T07:52:34.114Z,88.20
2018-12-10T07:55:02.457Z,88.40
2018-12-10T07:57:30.878Z,88.20
2018-12-10T07:59:59.340Z,89.00
2018-12-10T08:02:27.733Z,88.40
2018-12-10T08:04:56.227Z,88.40
2018-12-10T08:07:24.382Z,88.60
2018-12-10T08:09:52.674Z,88.40
2018-12-10T08:12:20.956Z,88.10
2018-12-10T08:14:49.129Z,87.50
2018-12-10T08:17:17.507Z,88.10
2018-12-10T08:19:45.997Z,87.10
2018-12-10T08:22:14.522Z,86.20
2018-12-10T08:24:42.848Z,85.80
2018-12-10T08:27:11.170Z,84.70
2018-12-10T08:29:39.492Z,84.10
2018-12-10T08:32:07.908Z,83.60
2018-12-10T08:34:41.336Z,82.50
2018-12-10T08:37:06.666Z,83.00
2018-12-10T08:39:35.189Z,82.70
2018-12-10T08:42:03.529Z,82.80
2018-12-10T08:44:32.055Z,83.00
2018-12-10T08:47:00.184Z,82.50
2018-12-10T08:49:28.937Z,82.70
2018-12-10T08:51:57.255Z,82.80
2018-12-10T08:54:25.517Z,82.80
2018-12-10T08:56:53.869Z,82.50
2018-12-10T08:59:22.350Z,82.70
2018-12-10T09:01:50.777Z,81.70
2018-12-10T09:04:20.180Z,80.80
2018-12-10T09:06:48.707Z,80.60
2018-12-10T09:09:17.604Z,81.20
2018-12-10T09:11:45.915Z,80.60
2018-12-10T09:14:14.196Z,80.40
2018-12-10T09:16:42.771Z,79.10
2018-12-10T09:19:11.226Z,78.00
2018-12-10T09:21:39.529Z,78.00
2018-12-10T09:24:08.311Z,77.30
2018-12-10T09:26:36.817Z,76.50
2018-12-10T09:29:05.235Z,76.30
2018-12-10T09:31:33.553Z,75.20
2018-12-10T09:34:02.054Z,75.20
2018-12-10T09:36:30.496Z,74.60
2018-12-10T09:38:58.833Z,72.20
2018-12-10T09:41:27.075Z,71.30
2018-12-10T09:43:55.361Z,70.20
2018-12-10T09:46:27.484Z,70.50
2018-12-10T09:48:54.048Z,70.00
2018-12-10T09:51:22.160Z,69.40
2018-12-10T09:53:50.684Z,70.50
2018-12-10T09:56:18.904Z,71.80
2018-12-10T09:58:47.475Z,72.60
2018-12-10T10:01:15.964Z,70.20
2018-12-10T10:03:44.335Z,70.50
2018-12-10T10:06:12.603Z,70.20
2018-12-10T10:08:41.199Z,70.20
2018-12-10T10:11:09.377Z,71.10
2018-12-10T10:13:37.817Z,71.30
2018-12-10T10:16:06.122Z,72.60
2018-12-10T10:18:34.715Z,72.60
2018-12-10T10:21:03.206Z,72.80
2018-12-10T10:23:31.381Z,73.00
2018-12-10T10:25:59.626Z,73.90
2018-12-10T10:28:27.742Z,74.60
2018-12-10T10:30:56.082Z,73.50
2018-12-10T10:33:32.170Z,73.90
2018-12-10T10:35:54.721Z,74.50
2018-12-10T10:38:22.971Z,74.60
2018-12-10T10:40:51.788Z,75.00
2018-12-10T10:43:20.517Z,75.00
2018-12-10T10:45:48.864Z,73.90
2018-12-10T10:48:17.297Z,73.50
2018-12-10T10:50:45.701Z,73.30
2018-12-10T10:53:14.171Z,70.90
2018-12-10T10:55:42.657Z,71.70
2018-12-10T10:58:16.780Z,70.90
2018-12-10T11:00:53.406Z,71.70
2018-12-10T11:03:27.324Z,71.10
2018-12-10T11:05:56.833Z,70.00
2018-12-10T11:08:25.137Z,70.50
2018-12-10T11:10:53.505Z,69.80
2018-12-10T11:13:21.896Z,69.60
2018-12-10T11:15:50.101Z,68.50
2018-12-10T11:18:18.743Z,68.50
2018-12-10T11:20:47.409Z,69.40
2018-12-10T11:23:15.842Z,67.20
2018-12-10T11:25:44.099Z,68.90
2018-12-10T11:28:12.457Z,69.20
2018-12-10T11:30:40.763Z,68.70
2018-12-10T11:33:09.221Z,69.20
2018-12-10T11:35:37.498Z,68.50
2018-12-10T11:38:05.896Z,68.70
2018-12-10T11:40:34.168Z,68.50
2018-12-10T11:43:02.336Z,68.30
2018-12-10T11:45:31.019Z,68.50
2018-12-10T11:47:59.303Z,68.50
2018-12-10T11:50:27.555Z,68.50
2018-12-10T11:52:55.845Z,67.70
2018-12-10T11:55:24.181Z,69.10
2018-12-10T11:57:52.722Z,69.60
2018-12-10T12:00:21.142Z,69.10
2018-12-10T12:02:49.385Z,70.20
2018-12-10T12:05:17.710Z,68.50
2018-12-10T12:07:45.965Z,69.20
2018-12-10T12:10:14.280Z,69.10
2018-12-10T12:12:43.510Z,69.80
2018-12-10T12:15:11.698Z,68.30
2018-12-10T12:17:40.156Z,67.60
2018-12-10T12:20:09.525Z,67.60
2018-12-10T12:22:38.172Z,66.80
2018-12-10T12:25:06.819Z,66.60
2018-12-10T12:27:52.123Z,66.40
2018-12-10T12:30:20.744Z,67.20
2018-12-10T12:32:48.944Z,66.60
2018-12-10T12:35:17.356Z,67.00
2018-12-10T12:37:45.644Z,67.60
2018-12-10T12:40:14.037Z,69.10
2018-12-10T12:42:42.480Z,67.90
2018-12-10T12:45:11.127Z,67.40
2018-12-10T12:47:40.376Z,67.90
2018-12-10T12:50:08.963Z,69.10
2018-12-10T12:52:37.428Z,68.30
2018-12-10T12:55:06.124Z,68.50
2018-12-10T12:57:34.613Z,68.90
2018-12-10T13:00:03.349Z,69.10
2018-12-10T13:02:32.089Z,66.60
2018-12-10T13:05:00.368Z,67.70
2018-12-10T13:07:28.933Z,67.20
2018-12-10T13:09:57.375Z,66.30
2018-12-10T13:12:25.600Z,66.60
2018-12-10T13:14:54.093Z,65.70
2018-12-10T13:17:22.658Z,66.80
2018-12-10T13:19:50.946Z,67.00
2018-12-10T13:22:19.126Z,65.90
2018-12-10T13:24:47.375Z,65.00
2018-12-10T13:27:15.850Z,64.40
2018-12-10T13:29:44.369Z,63.10
2018-12-10T13:32:12.729Z,62.20
2018-12-10T13:34:40.908Z,62.00
2018-12-10T13:37:09.133Z,62.30
2018-12-10T13:39:37.565Z,61.00
2018-12-10T13:42:06.033Z,61.60
2018-12-10T13:44:34.513Z,61.20
2018-12-10T13:47:02.855Z,61.20
2018-12-10T13:49:31.601Z,61.40
2018-12-10T13:52:09.004Z,62.00
2018-12-10T13:54:35.486Z,61.60
2018-12-10T13:57:04.596Z,62.30
2018-12-10T13:59:33.687Z,62.70
2018-12-10T14:02:01.995Z,62.90
2018-12-10T14:04:37.881Z,60.70
2018-12-10T14:07:06.147Z,60.10
2018-12-10T14:09:34.697Z,59.80
2018-12-10T14:12:03.178Z,59.00
2018-12-10T14:14:31.516Z,59.80
2018-12-10T14:17:00.186Z,59.60
2018-12-10T14:19:29.399Z,61.20
2018-12-10T14:21:58.279Z,61.80
2018-12-10T14:24:26.639Z,62.20
2018-12-10T14:26:54.876Z,61.40
2018-12-10T14:29:23.435Z,60.90
2018-12-10T14:31:51.746Z,61.20
2018-12-10T14:34:26.552Z,61.60
2018-12-10T14:36:55.037Z,61.00
2018-12-10T14:39:23.668Z,61.80
2018-12-10T14:41:52.028Z,61.60
2018-12-10T14:44:20.300Z,61.60
2018-12-10T14:46:48.910Z,62.30
2018-12-10T14:49:17.263Z,62.50
2018-12-10T14:51:45.876Z,62.50
2018-12-10T14:54:14.112Z,62.30
2018-12-10T14:56:42.551Z,62.20
2018-12-10T14:59:10.785Z,62.70
2018-12-10T15:01:39.668Z,63.30
2018-12-10T15:04:08.060Z,63.70
2018-12-10T15:06:36.344Z,63.80
2018-12-10T15:09:06.352Z,64.40
2018-12-10T15:11:35.865Z,64.80
2018-12-10T15:14:04.213Z,64.80
2018-12-10T15:16:32.766Z,65.70
2018-12-10T15:19:01.223Z,66.60
2018-12-10T15:21:29.568Z,66.60
2018-12-10T15:23:57.961Z,66.30
2018-12-10T15:26:26.325Z,66.40
2018-12-10T15:28:54.606Z,67.40
2018-12-10T15:31:23.188Z,67.40
2018-12-10T15:33:51.538Z,67.70
2018-12-10T15:36:20.058Z,67.70
2018-12-10T15:38:48.956Z,68.50
2018-12-10T15:41:17.344Z,68.70
2018-12-10T15:43:45.684Z,68.70
2018-12-10T15:46:14.165Z,68.50
2018-12-10T15:48:42.663Z,68.10
2018-12-10T15:51:11.052Z,68.10
2018-12-10T15:53:39.775Z,68.30
2018-12-10T15:56:08.449Z,67.40
2018-12-10T15:58:36.805Z,67.70
2018-12-10T16:01:05.207Z,67.40
2018-12-10T16:03:33.568Z,67.70
2018-12-10T16:06:02.008Z,67.90
2018-12-10T16:08:30.468Z,68.10
2018-12-10T16:10:58.796Z,68.50
2018-12-10T16:13:27.321Z,68.50
2018-12-10T16:15:55.587Z,67.90
2018-12-10T16:18:23.805Z,68.10
2018-12-10T16:20:52.201Z,68.70
2018-12-10T16:23:20.390Z,68.70
2018-12-10T16:25:49.153Z,68.70
2018-12-10T16:28:17.784Z,68.70
2018-12-10T16:30:46.408Z,69.20
2018-12-10T16:33:14.944Z,69.10
2018-12-10T16:35:43.568Z,69.20
2018-12-10T16:38:11.873Z,69.80
2018-12-10T16:40:40.278Z,69.40
2018-12-10T16:43:08.755Z,69.10
2018-12-10T16:45:37.440Z,69.20
2018-12-10T16:48:05.820Z,69.60
2018-12-10T16:50:34.284Z,70.40
2018-12-10T16:53:02.986Z,70.90
2018-12-10T16:55:31.350Z,71.70
2018-12-10T16:57:59.732Z,72.20
2018-12-10T17:00:28.121Z,72.80
2018-12-10T17:02:56.592Z,73.30
2018-12-10T17:05:27.850Z,73.90
2018-12-10T17:07:56.427Z,74.50
2018-12-10T17:10:24.828Z,75.00
2018-12-10T17:12:53.604Z,75.60
2018-12-10T17:15:22.282Z,75.80
2018-12-10T17:17:50.532Z,76.30
2018-12-10T17:20:19.111Z,76.70
2018-12-10T17:22:47.667Z,76.90
2018-12-10T17:25:16.461Z,77.40
2018-12-10T17:27:45.004Z,77.80
2018-12-10T17:30:13.673Z,78.00
2018-12-10T17:32:42.122Z,77.80
2018-12-10T17:35:10.342Z,77.80
2018-12-10T17:37:38.738Z,78.00
2018-12-10T17:40:07.614Z,78.00
2018-12-10T17:42:35.878Z,77.80
2018-12-10T17:45:05.469Z,78.20
2018-12-10T17:47:33.837Z,78.60
2018-12-10T17:50:02.255Z,78.60
2018-12-10T17:52:31.140Z,78.00
2018-12-10T17:54:59.519Z,78.00
2018-12-10T17:57:27.907Z,77.80
2018-12-10T17:59:59.159Z,78.00
2018-12-10T18:02:27.523Z,78.00
2018-12-10T18:04:56.950Z,77.60
2018-12-10T18:07:25.387Z,77.80
2018-12-10T18:09:53.790Z,77.80
2018-12-10T18:12:22.283Z,77.40
2018-12-10T18:14:50.583Z,77.40
2018-12-10T18:17:19.320Z,77.10
2018-12-10T18:19:47.913Z,77.80
2018-12-10T18:22:16.477Z,78.40
2018-12-10T18:24:44.906Z,78.60
2018-12-10T18:27:13.177Z,78.70
2018-12-10T18:29:41.532Z,78.20
2018-12-10T18:32:09.848Z,79.10
2018-12-10T18:34:38.092Z,80.20
2018-12-10T18:37:06.400Z,82.30
2018-12-10T18:39:34.790Z,84.30
2018-12-10T18:42:03.115Z,84.30
2018-12-10T18:44:31.695Z,84.70
2018-12-10T18:47:00.198Z,86.00
2018-12-10T18:49:28.736Z,87.30
2018-12-10T18:51:58.322Z,87.50
2018-12-10T18:54:26.858Z,87.30
2018-12-10T18:56:55.314Z,87.70
2018-12-10T18:59:24.005Z,88.20
2018-12-10T19:01:52.761Z,88.40
2018-12-10T19:04:21.053Z,87.90
2018-12-10T19:06:49.370Z,87.90
2018-12-10T19:09:18.001Z,88.40
2018-12-10T19:11:46.339Z,88.20
2018-12-10T19:14:14.742Z,89.20
2018-12-10T19:16:43.613Z,88.60
2018-12-10T19:19:11.969Z,88.60
2018-12-10T19:21:40.723Z,88.10
2018-12-10T19:24:09.211Z,88.20
2018-12-10T19:26:37.727Z,88.10
2018-12-10T19:29:06.091Z,88.10
2018-12-10T19:31:34.390Z,86.90
2018-12-10T19:34:03.664Z,87.30
2018-12-10T19:36:32.721Z,87.30
2018-12-10T19:39:01.182Z,87.50
2018-12-10T19:41:32.208Z,87.90
2018-12-10T19:44:00.597Z,87.70
2018-12-10T19:46:29.167Z,87.70
2018-12-10T19:48:57.876Z,87.10
2018-12-10T19:51:26.338Z,86.40
2018-12-10T19:53:54.919Z,86.20
2018-12-10T19:56:23.385Z,86.90
2018-12-10T19:58:52.350Z,87.10
2018-12-10T20:01:20.939Z,86.90
2018-12-10T20:03:50.006Z,87.50
2018-12-10T20:06:40.124Z,87.70
2018-12-10T20:09:08.764Z,88.10
2018-12-10T20:11:37.334Z,88.60
2018-12-10T20:14:07.821Z,89.20
2018-12-10T20:16:36.273Z,90.10
2018-12-10T20:19:04.816Z,90.20
2018-12-10T20:21:34.577Z,90.40
2018-12-10T20:24:03.032Z,90.80
2018-12-10T20:26:32.360Z,91.00
2018-12-10T20:29:00.937Z,91.30
2018-12-10T20:31:29.434Z,91.50
2018-12-10T20:33:57.998Z,91.70
2018-12-10T20:36:26.347Z,91.90
2018-12-10T20:38:54.844Z,91.90
2018-12-10T20:41:24.389Z,92.10
2018-12-10T20:43:53.271Z,92.10
2018-12-10T20:46:21.621Z,92.30
2018-12-10T20:48:50.447Z,92.30
2018-12-10T20:51:18.942Z,92.30
2018-12-10T20:53:47.492Z,92.30
2018-12-10T20:56:16.053Z,92.60
2018-12-10T20:58:44.558Z,92.70
2018-12-10T21:01:13.024Z,93.00
2018-12-10T21:03:41.880Z,93.10
2018-12-10T21:06:15.700Z,92.80
2018-12-10T21:08:44.142Z,92.70
2018-12-10T21:11:12.452Z,92.70
2018-12-10T21:13:41.164Z,92.20
2018-12-10T21:16:09.386Z,91.80
2018-12-10T21:18:38.070Z,91.00
2018-12-10T21:21:06.402Z,90.80
2018-12-10T21:23:34.929Z,90.40
2018-12-10T21:26:03.266Z,90.40
2018-12-10T21:28:31.926Z,90.10
2018-12-10T21:31:00.420Z,89.90
2018-12-10T21:33:28.835Z,90.10
2018-12-10T21:35:57.577Z,88.60
2018-12-10T21:38:26.056Z,88.80
2018-12-10T21:40:54.519Z,88.80
2018-12-10T21:43:23.198Z,87.90
2018-12-10T21:45:51.800Z,86.90
2018-12-10T21:48:20.409Z,87.50
2018-12-10T21:50:48.977Z,85.80
2018-12-10T21:53:17.269Z,86.00
2018-12-10T21:55:46.166Z,85.50
2018-12-10T21:58:14.736Z,85.10
2018-12-10T22:00:43.347Z,84.10
2018-12-10T22:03:11.822Z,84.30
2018-12-10T22:05:40.279Z,84.30
2018-12-10T22:08:08.815Z,83.80
2018-12-10T22:10:37.060Z,83.00
2018-12-10T22:13:05.589Z,82.50
2018-12-10T22:15:33.919Z,82.50
2018-12-10T22:18:02.478Z,82.70
2018-12-10T22:20:30.662Z,83.00
2018-12-10T22:22:58.991Z,83.20
2018-12-10T22:25:27.423Z,83.80
2018-12-10T22:27:55.783Z,84.00
2018-12-10T22:30:24.087Z,84.70
2018-12-10T22:32:52.616Z,85.10
2018-12-10T22:35:21.051Z,85.80
2018-12-10T22:37:49.489Z,86.20
2018-12-10T22:40:17.834Z,86.40
2018-12-10T22:42:46.485Z,86.60
2018-12-10T22:45:14.760Z,86.90
2018-12-10T22:47:43.128Z,87.10
2018-12-10T22:50:11.609Z,87.30
2018-12-10T22:52:39.900Z,86.60
2018-12-10T22:55:08.164Z,86.80
2018-12-10T22:57:36.440Z,86.80
2018-12-10T23:00:07.530Z,86.20
2018-12-10T23:02:37.912Z,86.20
2018-12-10T23:05:07.019Z,85.80
2018-12-10T23:07:37.395Z,85.10
2018-12-10T23:10:05.924Z,84.70
2018-12-10T23:12:34.386Z,85.60
2018-12-10T23:15:02.800Z,85.30
2018-12-10T23:17:31.342Z,84.50
2018-12-10T23:19:59.902Z,84.10
2018-12-10T23:22:28.214Z,83.40
2018-12-10T23:24:56.591Z,83.60
2018-12-10T23:27:24.939Z,83.80
2018-12-10T23:29:53.374Z,83.80
2018-12-10T23:32:21.608Z,83.80
2018-12-10T23:34:50.178Z,83.40
2018-12-10T23:37:18.620Z,84.00
2018-12-10T23:39:46.984Z,83.80
2018-12-10T23:42:15.476Z,83.20
2018-12-10T23:44:49.244Z,83.60
2018-12-10T23:47:17.430Z,83.80
2018-12-10T23:49:47.692Z,83.60
2018-12-10T23:52:16.960Z,83.40
2018-12-10T23:54:45.938Z,83.80
2018-12-10T23:57:14.437Z,83.60
2018-12-10T23:59:42.810Z,83.40
